Time;durP1;ratioP1;P1;durP2;ratioP2;P2;SDS_P1;SDS_P2;PMS_P1;PMS_P2;Temp;Humidity;BMP_temperature;BMP_pressure;BME280_temperature;BME280_humidity;BME280_pressure;Samples;Min_cycle;Max_cycle;Signal;HPM_P1;HPM_P2
2022/04/09 00:00:15;;;;;;;;;;;3.40;99.90;;;;;;5135280;27;19927;-72
2022/04/09 00:02:41;;;;;;;;;;;3.20;99.90;;;;;;5135105;27;19924;-74
2022/04/09 00:05:07;;;;;;;;;;;3.90;99.90;;;;;;5134976;27;19927;-74
2022/04/09 00:07:33;;;;;;;;;;;3.20;99.90;;;;;;5116840;27;19924;-71
2022/04/09 00:09:58;;;;;;;;;;;3.30;99.90;;;;;;5135196;27;20285;-70
2022/04/09 00:12:24;;;;;;;;;;;3.80;99.90;;;;;;5135130;27;19975;-75
2022/04/09 00:14:49;;;;;;;;;;;4.20;99.90;;;;;;5116905;27;20358;-71
2022/04/09 00:17:15;;;;;;;;;;;3.40;99.90;;;;;;5134888;27;20057;-71
2022/04/09 00:19:41;;;;;;;;;;;4.70;99.90;;;;;;5134821;27;20436;-71
2022/04/09 00:22:06;;;;;;;;;;;3.40;99.90;;;;;;5134549;27;20352;-70
2022/04/09 00:24:32;;;;;;;;;;;3.40;99.90;;;;;;5116822;27;20010;-71
2022/04/09 00:26:57;;;;;;;;;;;3.40;99.90;;;;;;5134820;27;20018;-73
2022/04/09 00:29:23;;;;;;;;;;;3.40;99.90;;;;;;5134825;27;19969;-73
2022/04/09 00:31:48;;;;;;;;;;;3.70;99.90;;;;;;5134966;27;19923;-71
2022/04/09 00:34:14;;;;;;;;;;;3.40;99.90;;;;;;5134692;27;19923;-71
2022/04/09 00:36:40;;;;;;;;;;;4.10;99.90;;;;;;5134570;28;19930;-72
2022/04/09 00:39:05;;;;;;;;;;;3.40;99.90;;;;;;5134777;28;20038;-71
2022/04/09 00:41:31;;;;;;;;;;;3.40;99.90;;;;;;5099281;28;19979;-71
2022/04/09 00:43:56;;;;;;;;;;;4.30;99.90;;;;;;5116563;28;19934;-71
2022/04/09 00:46:22;;;;;;;;;;;3.40;99.90;;;;;;5116443;28;19929;-74
2022/04/09 00:48:47;;;;;;;;;;;3.40;99.90;;;;;;5134514;28;20366;-71
2022/04/09 00:51:13;;;;;;;;;;;3.70;99.90;;;;;;5134384;28;20366;-71
2022/04/09 00:53:42;;;;;;;;;;;3.30;99.90;;;;;;5134394;28;20018;-72
2022/04/09 00:56:20;;;;;;;;;;;4.90;99.90;;;;;;5134638;28;19946;-71
2022/04/09 00:58:55;;;;;;;;;;;2.10;99.90;;;;;;5134420;28;19923;-71
2022/04/09 01:01:26;;;;;;;;;;;3.30;99.90;;;;;;5134378;28;19924;-75
2022/04/09 01:03:52;;;;;;;;;;;3.30;99.90;;;;;;5134327;28;19973;-71
2022/04/09 01:06:17;;;;;;;;;;;3.20;99.90;;;;;;5134475;28;19978;-72
2022/04/09 01:08:43;;;;;;;;;;;3.70;99.90;;;;;;5116420;28;19930;-71
2022/04/09 01:11:08;;;;;;;;;;;3.60;99.90;;;;;;5134433;28;19929;-75
2022/04/09 01:13:35;;;;;;;;;;;3.90;99.90;;;;;;5115947;28;19923;-71
2022/04/09 01:16:00;;;;;;;;;;;3.50;99.90;;;;;;5134364;28;19923;-71
2022/04/09 01:18:26;;;;;;;;;;;3.20;99.90;;;;;;5134205;28;19972;-72
2022/04/09 01:20:51;;;;;;;;;;;4.60;99.90;;;;;;5134003;28;19927;-73
2022/04/09 01:23:17;;;;;;;;;;;3.30;99.90;;;;;;5134306;28;19923;-71
2022/04/09 01:25:42;;;;;;;;;;;3.30;99.90;;;;;;5134157;28;20002;-72
2022/04/09 01:28:08;;;;;;;;;;;4.90;99.90;;;;;;5134254;28;19924;-71
2022/04/09 01:30:34;;;;;;;;;;;3.60;99.90;;;;;;5134169;28;20010;-73
2022/04/09 01:32:59;;;;;;;;;;;3.90;99.90;;;;;;5115847;28;19923;-73
2022/04/09 01:35:25;;;;;;;;;;;3.80;99.90;;;;;;5116004;28;19973;-73
2022/04/09 01:37:51;;;;;;;;;;;3.80;99.90;;;;;;5134357;28;19946;-71
2022/04/09 01:40:17;;;;;;;;;;;3.40;99.90;;;;;;5135079;27;19934;-71
2022/04/09 01:42:43;;;;;;;;;;;4.50;99.90;;;;;;5137932;27;19923;-72
2022/04/09 01:45:09;;;;;;;;;;;3.30;99.90;;;;;;5119696;27;19923;-72
2022/04/09 01:47:36;;;;;;;;;;;3.30;99.90;;;;;;5137715;27;19946;-72
2022/04/09 01:50:02;;;;;;;;;;;3.30;99.90;;;;;;5137604;27;19924;-71
2022/04/09 01:52:27;;;;;;;;;;;3.20;99.90;;;;;;5119758;27;20011;-71
2022/04/09 01:54:53;;;;;;;;;;;3.20;99.90;;;;;;5137782;27;20010;-73
2022/04/09 01:57:19;;;;;;;;;;;3.10;99.90;;;;;;5137715;27;20293;-71
2022/04/09 01:59:44;;;;;;;;;;;4.40;99.90;;;;;;5137495;27;20496;-71
2022/04/09 02:02:11;;;;;;;;;;;3.20;99.90;;;;;;5137530;27;19923;-73
2022/04/09 02:04:36;;;;;;;;;;;3.10;99.90;;;;;;5137426;27;20302;-73
2022/04/09 02:07:02;;;;;;;;;;;3.30;99.90;;;;;;5137527;27;19973;-70
2022/04/09 02:09:29;;;;;;;;;;;3.10;99.90;;;;;;5137507;27;19923;-71
2022/04/09 02:11:54;;;;;;;;;;;2.80;99.90;;;;;;5119288;27;19928;-71
2022/04/09 02:14:20;;;;;;;;;;;4.80;99.90;;;;;;5118923;27;20259;-71
2022/04/09 02:16:45;;;;;;;;;;;4.30;99.90;;;;;;5118852;27;20072;-71
2022/04/09 02:19:11;;;;;;;;;;;4.60;99.90;;;;;;5137182;27;19923;-72
2022/04/09 02:21:37;;;;;;;;;;;1.90;99.90;;;;;;5137025;27;19928;-71
2022/04/09 02:24:04;;;;;;;;;;;3.20;99.90;;;;;;5136484;27;20421;-71
2022/04/09 02:26:30;;;;;;;;;;;3.30;99.90;;;;;;5137027;27;19924;-71
2022/04/09 02:28:56;;;;;;;;;;;3.30;99.90;;;;;;5137079;27;20466;-71
2022/04/09 02:31:22;;;;;;;;;;;4.30;99.90;;;;;;5136971;27;19924;-76
2022/04/09 02:33:48;;;;;;;;;;;3.50;99.90;;;;;;5101825;27;19923;-72
2022/04/09 02:36:14;;;;;;;;;;;3.00;99.90;;;;;;5136806;27;20306;-73
2022/04/09 02:38:39;;;;;;;;;;;3.90;99.90;;;;;;5136963;27;19930;-71
2022/04/09 02:41:06;;;;;;;;;;;3.30;99.90;;;;;;5136832;27;19930;-71
2022/04/09 02:43:32;;;;;;;;;;;3.30;99.90;;;;;;5136693;27;19923;-71
2022/04/09 02:45:58;;;;;;;;;;;3.30;99.90;;;;;;5136493;27;19923;-71
2022/04/09 02:48:23;;;;;;;;;;;3.20;99.90;;;;;;5136641;27;19923;-73
2022/04/09 02:50:49;;;;;;;;;;;3.60;99.90;;;;;;5118317;27;20040;-71
2022/04/09 02:53:14;;;;;;;;;;;4.50;99.90;;;;;;5135366;27;19934;-71
2022/04/09 02:55:40;;;;;;;;;;;4.90;99.90;;;;;;5136589;27;19923;-71
2022/04/09 02:58:06;;;;;;;;;;;3.90;99.90;;;;;;5136506;27;19931;-72
2022/04/09 03:00:31;;;;;;;;;;;3.00;99.90;;;;;;5136458;27;19957;-71
2022/04/09 03:02:57;;;;;;;;;;;3.90;99.90;;;;;;5136342;27;19923;-71
2022/04/09 03:05:22;;;;;;;;;;;1.10;99.90;;;;;;5117945;27;20294;-72
2022/04/09 03:07:48;;;;;;;;;;;4.70;99.90;;;;;;5136111;27;20336;-71
2022/04/09 03:10:13;;;;;;;;;;;4.10;99.90;;;;;;5136287;27;20366;-71
2022/04/09 03:12:46;;;;;;;;;;;3.70;99.90;;;;;;5118185;27;19924;-72
2022/04/09 03:15:12;;;;;;;;;;;2.80;99.90;;;;;;5136073;27;20010;-72
2022/04/09 03:17:37;;;;;;;;;;;2.90;99.90;;;;;;5117828;27;19924;-71
2022/04/09 03:20:03;;;;;;;;;;;3.90;99.90;;;;;;5117154;27;19931;-71
2022/04/09 03:22:30;;;;;;;;;;;2.60;99.90;;;;;;5135974;27;19930;-73
2022/04/09 03:24:58;;;;;;;;;;;2.90;99.90;;;;;;5135946;27;19924;-71
2022/04/09 03:27:25;;;;;;;;;;;2.60;99.90;;;;;;5135874;27;19924;-75
2022/04/09 03:29:51;;;;;;;;;;;3.70;99.90;;;;;;5135755;27;19931;-71
2022/04/09 03:32:17;;;;;;;;;;;3.70;99.90;;;;;;5135887;27;19927;-71
2022/04/09 03:34:42;;;;;;;;;;;3.00;99.90;;;;;;5135786;27;20282;-73
2022/04/09 03:37:08;;;;;;;;;;;2.70;99.90;;;;;;5135560;27;19924;-71
2022/04/09 03:39:35;;;;;;;;;;;2.60;99.90;;;;;;5135795;27;19924;-71
2022/04/09 03:42:00;;;;;;;;;;;3.70;99.90;;;;;;5135632;27;20337;-72
2022/04/09 03:44:26;;;;;;;;;;;4.60;99.90;;;;;;5135467;27;19931;-72
2022/04/09 03:46:58;;;;;;;;;;;2.60;99.90;;;;;;5135483;27;19924;-71
2022/04/09 03:49:24;;;;;;;;;;;2.60;99.90;;;;;;5117017;27;20398;-71
2022/04/09 03:51:50;;;;;;;;;;;2.60;99.90;;;;;;5117164;27;19924;-71
2022/04/09 03:54:15;;;;;;;;;;;2.60;99.90;;;;;;5117258;27;19924;-71
2022/04/09 03:56:43;;;;;;;;;;;2.50;99.90;;;;;;5135467;27;19923;-73
2022/04/09 03:59:09;;;;;;;;;;;2.60;99.90;;;;;;5135229;27;19923;-71
2022/04/09 04:01:35;;;;;;;;;;;2.50;99.90;;;;;;5116910;27;19968;-73
2022/04/09 04:04:01;;;;;;;;;;;2.60;99.90;;;;;;5134856;27;19923;-71
2022/04/09 04:06:27;;;;;;;;;;;4.10;99.90;;;;;;5135009;27;20343;-71
2022/04/09 04:08:52;;;;;;;;;;;3.60;99.90;;;;;;5135175;27;19923;-71
2022/04/09 04:11:18;;;;;;;;;;;3.60;99.90;;;;;;5116793;27;19930;-74
2022/04/09 04:13:44;;;;;;;;;;;3.10;99.90;;;;;;5134948;27;19928;-71
2022/04/09 04:16:09;;;;;;;;;;;3.90;99.90;;;;;;5135023;27;19923;-72
2022/04/09 04:18:36;;;;;;;;;;;4.00;99.90;;;;;;5134929;27;19969;-70
2022/04/09 04:21:02;;;;;;;;;;;2.70;99.90;;;;;;5134603;27;19993;-73
2022/04/09 04:23:27;;;;;;;;;;;2.80;99.90;;;;;;5134636;27;19939;-72
2022/04/09 04:25:53;;;;;;;;;;;2.80;99.90;;;;;;5135077;27;19934;-73
2022/04/09 04:28:19;;;;;;;;;;;2.90;99.90;;;;;;5134987;27;19923;-71
2022/04/09 04:30:45;;;;;;;;;;;4.60;99.90;;;;;;5134881;27;20374;-71
2022/04/09 04:33:10;;;;;;;;;;;2.80;99.90;;;;;;5134803;27;19923;-71
2022/04/09 04:35:36;;;;;;;;;;;3.20;99.90;;;;;;5134703;27;19927;-70
2022/04/09 04:38:01;;;;;;;;;;;4.00;99.90;;;;;;5134602;27;19923;-73
2022/04/09 04:40:27;;;;;;;;;;;2.80;99.90;;;;;;5135101;27;20010;-72
2022/04/09 04:42:53;;;;;;;;;;;2.80;99.90;;;;;;5134747;28;20378;-71
2022/04/09 04:45:18;;;;;;;;;;;2.80;99.90;;;;;;5134547;28;19982;-70
2022/04/09 04:47:44;;;;;;;;;;;2.70;99.90;;;;;;5134587;28;19923;-71
2022/04/09 04:50:10;;;;;;;;;;;3.00;99.90;;;;;;5116449;28;19923;-71
2022/04/09 04:52:36;;;;;;;;;;;2.70;99.90;;;;;;5134802;28;19923;-74
2022/04/09 04:55:01;;;;;;;;;;;2.70;99.90;;;;;;5116454;28;19973;-71
2022/04/09 04:57:27;;;;;;;;;;;2.80;99.90;;;;;;5134674;28;20460;-71
2022/04/09 04:59:52;;;;;;;;;;;2.70;99.90;;;;;;5134650;28;19923;-74
2022/04/09 05:02:18;;;;;;;;;;;3.80;99.90;;;;;;5116222;28;19927;-72
2022/04/09 05:04:43;;;;;;;;;;;4.00;99.90;;;;;;5116418;28;20014;-74
2022/04/09 05:07:09;;;;;;;;;;;3.10;99.90;;;;;;5098693;28;19982;-73
2022/04/09 05:09:35;;;;;;;;;;;3.30;99.90;;;;;;5134254;28;19924;-71
2022/04/09 05:12:00;;;;;;;;;;;3.90;99.90;;;;;;5134454;28;19923;-74
2022/04/09 05:14:26;;;;;;;;;;;2.80;99.90;;;;;;5134416;27;19950;-74
2022/04/09 05:16:52;;;;;;;;;;;2.80;99.90;;;;;;5137946;27;19924;-71
2022/04/09 05:19:17;;;;;;;;;;;4.10;99.90;;;;;;5119464;27;20288;-71
2022/04/09 05:21:45;;;;;;;;;;;2.80;99.90;;;;;;5138122;27;19923;-72
2022/04/09 05:24:11;;;;;;;;;;;2.90;99.90;;;;;;5141848;27;19923;-70
2022/04/09 05:26:36;;;;;;;;;;;3.90;99.90;;;;;;5159155;27;19923;-73
2022/04/09 05:29:02;;;;;;;;;;;3.20;99.90;;;;;;5140535;27;20010;-73
2022/04/09 05:31:28;;;;;;;;;;;3.00;99.90;;;;;;5140749;27;20023;-74
2022/04/09 05:33:54;;;;;;;;;;;4.40;99.90;;;;;;5140429;27;19923;-71
2022/04/09 05:36:20;;;;;;;;;;;3.00;99.90;;;;;;5158591;27;19923;-73
2022/04/09 05:38:46;;;;;;;;;;;4.10;99.90;;;;;;5158796;27;19929;-70
2022/04/09 05:41:11;;;;;;;;;;;3.10;99.90;;;;;;5158560;27;19927;-71
2022/04/09 05:43:37;;;;;;;;;;;3.10;99.90;;;;;;5139457;27;19966;-70
2022/04/09 05:46:02;;;;;;;;;;;3.80;99.90;;;;;;5158623;27;19923;-73
2022/04/09 05:48:28;;;;;;;;;;;4.20;99.90;;;;;;5158159;27;19923;-75
2022/04/09 05:50:54;;;;;;;;;;;3.20;99.90;;;;;;5140051;27;19923;-71
2022/04/09 05:53:19;;;;;;;;;;;3.20;99.90;;;;;;5157953;27;20052;-71
2022/04/09 05:55:45;;;;;;;;;;;4.70;99.90;;;;;;5159243;27;19923;-71
2022/04/09 05:58:11;;;;;;;;;;;4.50;99.90;;;;;;5158574;27;19930;-71
2022/04/09 06:00:37;;;;;;;;;;;3.40;99.90;;;;;;5158370;27;19931;-71
2022/04/09 06:03:03;;;;;;;;;;;3.80;99.90;;;;;;5158367;27;19984;-71
2022/04/09 06:05:29;;;;;;;;;;;3.80;99.90;;;;;;5169427;27;19967;-74
2022/04/09 06:07:54;;;;;;;;;;;3.90;99.90;;;;;;5178955;27;19923;-72
2022/04/09 06:10:20;;;;;;;;;;;4.50;99.90;;;;;;5178981;27;19922;-75
2022/04/09 06:12:45;;;;;;;;;;;3.50;99.90;;;;;;5142431;27;20005;-75
2022/04/09 06:15:11;;;;;;;;;;;3.60;99.90;;;;;;5153452;27;19929;-72
2022/04/09 06:17:37;;;;;;;;;;;3.90;99.90;;;;;;5157842;27;19934;-71
2022/04/09 06:20:04;;;;;;;;;;;3.70;99.90;;;;;;5157780;27;20441;-71
2022/04/09 06:22:30;;;;;;;;;;;3.70;99.90;;;;;;5162695;27;19983;-71
2022/04/09 06:24:55;;;;;;;;;;;5.00;99.90;;;;;;5178635;27;19922;-70
2022/04/09 06:27:21;;;;;;;;;;;3.80;99.90;;;;;;5155079;27;20419;-71
2022/04/09 06:29:46;;;;;;;;;;;3.80;99.90;;;;;;5171320;27;19982;-75
2022/04/09 06:32:12;;;;;;;;;;;4.50;99.90;;;;;;5157914;27;20293;-71
2022/04/09 06:34:38;;;;;;;;;;;3.90;99.90;;;;;;5157441;27;19927;-71
2022/04/09 06:37:03;;;;;;;;;;;4.00;99.90;;;;;;5157639;27;19988;-71
2022/04/09 06:39:29;;;;;;;;;;;4.00;99.90;;;;;;5137921;27;19929;-72
2022/04/09 06:41:55;;;;;;;;;;;4.10;99.90;;;;;;5147973;27;19923;-72
2022/04/09 06:44:20;;;;;;;;;;;4.50;99.90;;;;;;5160306;27;19937;-75
2022/04/09 06:46:46;;;;;;;;;;;5.20;99.90;;;;;;5143131;27;19974;-71
2022/04/09 06:49:13;;;;;;;;;;;5.60;99.90;;;;;;5168828;27;20277;-72
2022/04/09 06:51:38;;;;;;;;;;;2.90;99.90;;;;;;5178196;27;19948;-71
2022/04/09 06:54:04;;;;;;;;;;;4.20;99.90;;;;;;5178147;27;20266;-71
2022/04/09 06:56:30;;;;;;;;;;;4.20;99.90;;;;;;5163978;27;19931;-73
2022/04/09 06:58:55;;;;;;;;;;;4.20;99.90;;;;;;5174199;27;19923;-75
2022/04/09 07:01:21;;;;;;;;;;;4.20;99.90;;;;;;5178047;27;20349;-72
2022/04/09 07:03:46;;;;;;;;;;;4.10;99.90;;;;;;5178038;27;19970;-73
2022/04/09 07:06:14;;;;;;;;;;;4.10;99.90;;;;;;5177697;27;19926;-74
2022/04/09 07:08:40;;;;;;;;;;;5.30;99.90;;;;;;5171960;27;19923;-71
2022/04/09 07:11:05;;;;;;;;;;;5.30;99.90;;;;;;5157884;27;19929;-73
2022/04/09 07:13:31;;;;;;;;;;;5.20;99.90;;;;;;5163907;27;19927;-73
2022/04/09 07:15:57;;;;;;;;;;;4.40;99.90;;;;;;5160469;27;19923;-73
2022/04/09 07:18:22;;;;;;;;;;;4.50;99.90;;;;;;5172212;27;20334;-71
2022/04/09 07:20:48;;;;;;;;;;;5.50;99.90;;;;;;5156493;27;20323;-72
2022/04/09 07:23:13;;;;;;;;;;;4.80;99.90;;;;;;5158859;27;19923;-71
2022/04/09 07:25:42;;;;;;;;;;;5.60;99.90;;;;;;5159229;27;20321;-71
2022/04/09 07:28:07;;;;;;;;;;;4.90;99.90;;;;;;5171082;27;19927;-71
2022/04/09 07:30:33;;;;;;;;;;;5.00;99.90;;;;;;5159832;27;20006;-70
2022/04/09 07:32:58;;;;;;;;;;;5.20;99.90;;;;;;5172827;27;19923;-71
2022/04/09 07:35:27;;;;;;;;;;;5.70;99.90;;;;;;5157182;27;19923;-71
2022/04/09 07:37:55;;;;;;;;;;;5.20;99.90;;;;;;5155817;27;19923;-73
2022/04/09 07:40:30;;;;;;;;;;;5.10;99.90;;;;;;5155769;27;19929;-72
2022/04/09 07:42:57;;;;;;;;;;;5.20;99.90;;;;;;5156218;27;19927;-73
2022/04/09 07:45:23;;;;;;;;;;;5.20;99.90;;;;;;5147177;27;19972;-72
2022/04/09 07:47:52;;;;;;;;;;;5.30;99.90;;;;;;5177126;27;20396;-75
2022/04/09 07:50:18;;;;;;;;;;;5.30;99.90;;;;;;5157398;27;20006;-74
2022/04/09 07:52:43;;;;;;;;;;;5.40;99.90;;;;;;5158574;27;19980;-73
2022/04/09 07:55:11;;;;;;;;;;;5.70;99.90;;;;;;5169586;27;19930;-71
2022/04/09 07:57:37;;;;;;;;;;;6.80;99.90;;;;;;5155849;27;20365;-72
2022/04/09 08:00:03;;;;;;;;;;;5.60;99.90;;;;;;5158454;27;19923;-73
2022/04/09 08:02:28;;;;;;;;;;;5.60;99.90;;;;;;5137841;27;20362;-74
2022/04/09 08:04:54;;;;;;;;;;;6.00;99.90;;;;;;5155966;27;19923;-71
2022/04/09 08:07:19;;;;;;;;;;;6.90;99.90;;;;;;5136919;27;19923;-72
2022/04/09 08:09:45;;;;;;;;;;;5.80;99.90;;;;;;5158171;27;19923;-74
2022/04/09 08:12:15;;;;;;;;;;;5.90;99.90;;;;;;5154041;27;20389;-71
2022/04/09 08:14:41;;;;;;;;;;;6.90;99.90;;;;;;5170933;27;19923;-72
2022/04/09 08:17:07;;;;;;;;;;;6.80;99.90;;;;;;5155856;27;20317;-70
2022/04/09 08:19:34;;;;;;;;;;;6.50;99.90;;;;;;5155115;27;19923;-71
2022/04/09 08:22:00;;;;;;;;;;;6.40;99.90;;;;;;5156198;27;19938;-71
2022/04/09 08:24:26;;;;;;;;;;;6.50;99.90;;;;;;5155597;27;19923;-72
2022/04/09 08:26:52;;;;;;;;;;;6.60;99.90;;;;;;5155427;27;20456;-72
2022/04/09 08:29:19;;;;;;;;;;;7.10;99.90;;;;;;5155642;27;19923;-72
2022/04/09 08:31:47;;;;;;;;;;;6.70;99.90;;;;;;5163499;27;19930;-76
2022/04/09 08:34:17;;;;;;;;;;;7.10;99.90;;;;;;5175433;27;20390;-74
2022/04/09 08:36:42;;;;;;;;;;;7.00;99.90;;;;;;5157862;27;19930;-74
2022/04/09 08:39:08;;;;;;;;;;;7.00;99.90;;;;;;5175028;27;19922;-71
2022/04/09 08:41:40;;;;;;;;;;;7.30;99.90;;;;;;5172749;27;19934;-71
2022/04/09 08:44:06;;;;;;;;;;;7.10;99.90;;;;;;5157174;27;19994;-72
2022/04/09 08:46:34;;;;;;;;;;;7.00;99.90;;;;;;5157226;27;20433;-72
2022/04/09 08:49:02;;;;;;;;;;;7.10;99.90;;;;;;5163829;27;20014;-72
2022/04/09 08:51:28;;;;;;;;;;;7.30;99.90;;;;;;5157980;27;19945;-74
2022/04/09 08:53:54;;;;;;;;;;;7.50;99.90;;;;;;5173284;27;20369;-74
2022/04/09 08:56:19;;;;;;;;;;;7.70;99.90;;;;;;5169615;27;19930;-74
2022/04/09 08:58:45;;;;;;;;;;;8.00;99.90;;;;;;5159445;27;19931;-71
2022/04/09 09:01:11;;;;;;;;;;;7.20;99.90;;;;;;5123929;27;20021;-71
2022/04/09 09:03:36;;;;;;;;;;;6.60;99.90;;;;;;5159333;27;20026;-73
2022/04/09 09:06:23;;;;;;;;;;;6.60;99.90;;;;;;5141648;27;19927;-72
2022/04/09 09:08:49;;;;;;;;;;;6.00;99.90;;;;;;5164161;27;19930;-71
2022/04/09 09:11:16;;;;;;;;;;;5.90;99.90;;;;;;5140563;27;20305;-72
2022/04/09 09:13:52;;;;;;;;;;;5.80;99.90;;;;;;5174632;27;19945;-71
2022/04/09 09:16:23;;;;;;;;;;;5.70;99.90;;;;;;5165103;27;19926;-72
2022/04/09 09:18:51;;;;;;;;;;;5.70;99.90;;;;;;5159248;27;20300;-72
2022/04/09 09:21:23;;;;;;;;;;;5.60;99.90;;;;;;5142997;27;19987;-72
2022/04/09 09:23:51;;;;;;;;;;;5.60;99.90;;;;;;5176227;27;20297;-72
2022/04/09 09:26:21;;;;;;;;;;;5.70;99.90;;;;;;5158782;27;19931;-72
2022/04/09 09:28:56;;;;;;;;;;;5.90;99.90;;;;;;5158804;27;19927;-72
2022/04/09 09:31:38;;;;;;;;;;;6.20;99.90;;;;;;5139877;27;20021;-74
2022/04/09 09:34:12;;;;;;;;;;;5.60;99.90;;;;;;5158041;27;19930;-73
2022/04/09 09:36:41;;;;;;;;;;;5.20;99.90;;;;;;5150798;27;19923;-72
2022/04/09 09:39:08;;;;;;;;;;;4.60;99.90;;;;;;5158342;27;20017;-72
2022/04/09 09:41:35;;;;;;;;;;;4.30;99.90;;;;;;5158170;27;19974;-71
2022/04/09 09:44:02;;;;;;;;;;;4.10;99.90;;;;;;5158473;27;19924;-71
2022/04/09 09:46:29;;;;;;;;;;;4.00;99.90;;;;;;5158014;27;19923;-76
2022/04/09 09:48:56;;;;;;;;;;;3.90;99.90;;;;;;5141739;27;20017;-71
2022/04/09 09:51:25;;;;;;;;;;;3.90;99.90;;;;;;5158211;27;19934;-74
2022/04/09 09:54:14;;;;;;;;;;;3.90;99.90;;;;;;5158279;27;19931;-75
2022/04/09 09:56:41;;;;;;;;;;;4.00;99.90;;;;;;5042852;28;19950;-71
2022/04/09 09:59:09;;;;;;;;;;;4.10;99.90;;;;;;5053344;28;19931;-75
2022/04/09 10:01:40;;;;;;;;;;;4.40;99.90;;;;;;5053133;28;20046;-71
2022/04/09 10:04:07;;;;;;;;;;;4.60;99.90;;;;;;5045507;28;20007;-72
2022/04/09 10:06:34;;;;;;;;;;;4.90;99.90;;;;;;5053135;28;19933;-71
2022/04/09 10:09:02;;;;;;;;;;;5.20;99.90;;;;;;5053603;28;20052;-72
2022/04/09 10:11:29;;;;;;;;;;;5.50;99.90;;;;;;5037181;28;19932;-72
2022/04/09 10:13:56;;;;;;;;;;;5.70;99.90;;;;;;5053645;28;19975;-71
2022/04/09 10:16:23;;;;;;;;;;;6.00;99.90;;;;;;5055295;28;19925;-71
2022/04/09 10:18:49;;;;;;;;;;;6.20;99.90;;;;;;5045973;28;20450;-71
2022/04/09 10:21:19;;;;;;;;;;;6.50;99.90;;;;;;5054969;28;20011;-71
2022/04/09 10:23:46;;;;;;;;;;;6.80;99.90;;;;;;5073496;28;19992;-77
2022/04/09 10:26:13;;;;;;;;;;;7.10;99.90;;;;;;5073342;28;19937;-71
2022/04/09 10:28:39;;;;;;;;;;;7.40;99.90;;;;;;5061282;28;19932;-73
2022/04/09 10:31:23;;;;;;;;;;;7.50;99.90;;;;;;5053162;28;20479;-71
2022/04/09 10:33:56;;;;;;;;;;;7.10;99.90;;;;;;5117754;27;19976;-71
2022/04/09 10:36:37;;;;;;;;;;;6.30;99.90;;;;;;5168122;27;19922;-71
2022/04/09 10:39:23;;;;;;;;;;;5.80;99.90;;;;;;5157681;27;19930;-71
2022/04/09 10:41:50;;;;;;;;;;;5.50;99.90;;;;;;5157380;27;20396;-73
2022/04/09 10:44:55;;;;;;;;;;;5.30;99.90;;;;;;5157486;27;20345;-73
2022/04/09 10:47:23;;;;;;;;;;;5.50;99.90;;;;;;5064498;28;19970;-71
2022/04/09 10:50:02;;;;;;;;;;;5.70;99.90;;;;;;5069041;28;20386;-71
2022/04/09 10:52:29;;;;;;;;;;;5.90;99.90;;;;;;5065324;28;19924;-72
2022/04/09 10:55:10;;;;;;;;;;;6.20;99.90;;;;;;5056159;28;19925;-74
2022/04/09 10:57:46;;;;;;;;;;;6.40;99.90;;;;;;5055340;28;19931;-73
2022/04/09 11:00:22;;;;;;;;;;;6.60;99.90;;;;;;5072802;28;19924;-72
2022/04/09 11:03:04;;;;;;;;;;;6.90;99.90;;;;;;5072848;28;19924;-73
2022/04/09 11:05:33;;;;;;;;;;;7.10;99.90;;;;;;5072642;28;19928;-71
2022/04/09 11:08:06;;;;;;;;;;;7.10;99.90;;;;;;5060297;28;20508;-71
2022/04/09 11:10:33;;;;;;;;;;;7.20;99.90;;;;;;5058713;28;19928;-71
2022/04/09 11:12:58;;;;;;;;;;;7.20;99.90;;;;;;5034267;28;20027;-70
2022/04/09 11:15:27;;;;;;;;;;;7.20;99.90;;;;;;5054846;28;20546;-74
2022/04/09 11:17:58;;;;;;;;;;;7.30;99.90;;;;;;5060674;28;19924;-71
2022/04/09 11:20:24;;;;;;;;;;;7.50;99.90;;;;;;5049935;28;20391;-71
2022/04/09 11:22:55;;;;;;;;;;;7.60;99.90;;;;;;5033610;28;19929;-77
2022/04/09 11:25:23;;;;;;;;;;;7.70;99.90;;;;;;5114902;28;19924;-73
2022/04/09 11:27:50;;;;;;;;;;;7.70;99.90;;;;;;5115230;28;20014;-71
2022/04/09 11:30:17;;;;;;;;;;;7.80;99.90;;;;;;5114610;28;19923;-71
2022/04/09 11:32:46;;;;;;;;;;;7.80;99.90;;;;;;5129686;27;19937;-71
2022/04/09 11:35:12;;;;;;;;;;;7.80;99.90;;;;;;5135325;27;19941;-74
2022/04/09 11:37:47;;;;;;;;;;;7.90;99.90;;;;;;5117412;27;19923;-72
2022/04/09 11:40:14;;;;;;;;;;;7.90;99.90;;;;;;5132519;27;19970;-73
2022/04/09 11:42:44;;;;;;;;;;;8.00;99.90;;;;;;5114124;27;19969;-70
2022/04/09 11:45:28;;;;;;;;;;;8.00;99.90;;;;;;5135203;27;20024;-69
2022/04/09 11:47:57;;;;;;;;;;;8.10;99.90;;;;;;5108787;27;19949;-74
2022/04/09 11:50:25;;;;;;;;;;;8.20;99.90;;;;;;5135211;27;19923;-74
2022/04/09 11:52:51;;;;;;;;;;;8.30;99.90;;;;;;5115934;27;19930;-71
2022/04/09 11:55:18;;;;;;;;;;;8.20;99.90;;;;;;5096360;28;19928;-71
2022/04/09 11:57:54;;;;;;;;;;;8.30;99.90;;;;;;5114732;28;20361;-75
2022/04/09 12:00:23;;;;;;;;;;;8.40;99.90;;;;;;5118238;27;20386;-71
2022/04/09 12:02:50;;;;;;;;;;;8.60;99.90;;;;;;5135052;27;20026;-71
2022/04/09 12:05:16;;;;;;;;;;;8.80;99.90;;;;;;5131275;27;20025;-73
2022/04/09 12:07:42;;;;;;;;;;;8.80;99.90;;;;;;5117079;27;19923;-72
2022/04/09 12:10:22;;;;;;;;;;;8.90;99.90;;;;;;5116215;27;19923;-71
2022/04/09 12:12:53;;;;;;;;;;;8.80;99.90;;;;;;5095035;28;20014;-72
2022/04/09 12:15:25;;;;;;;;;;;8.70;99.90;;;;;;5096257;28;20444;-74
2022/04/09 12:17:51;;;;;;;;;;;8.60;99.90;;;;;;5120891;27;20006;-75
2022/04/09 12:20:30;;;;;;;;;;;8.40;99.90;;;;;;5116278;27;19959;-71
2022/04/09 12:22:56;;;;;;;;;;;8.30;99.90;;;;;;5133533;27;19976;-72
2022/04/09 12:25:36;;;;;;;;;;;8.30;99.90;;;;;;5136460;27;19950;-76
2022/04/09 12:28:03;;;;;;;;;;;8.40;99.90;;;;;;5134574;27;19923;-71
2022/04/09 12:30:38;;;;;;;;;;;9.00;99.90;;;;;;5116107;28;19927;-72
2022/04/09 12:33:07;;;;;;;;;;;8.20;99.90;;;;;;5135991;27;19970;-71
2022/04/09 12:35:33;;;;;;;;;;;8.10;99.90;;;;;;5139073;27;19924;-71
2022/04/09 12:37:58;;;;;;;;;;;8.00;99.90;;;;;;5134681;27;19924;-70
2022/04/09 12:40:26;;;;;;;;;;;7.90;99.90;;;;;;5134368;27;19979;-70
2022/04/09 12:42:52;;;;;;;;;;;7.80;99.90;;;;;;5134428;27;19923;-70
2022/04/09 12:45:20;;;;;;;;;;;7.60;99.90;;;;;;5134133;27;19930;-71
2022/04/09 12:47:55;;;;;;;;;;;7.60;99.90;;;;;;5141785;27;19927;-71
2022/04/09 12:50:22;;;;;;;;;;;7.60;99.90;;;;;;5134492;28;20089;-73
2022/04/09 12:52:47;;;;;;;;;;;7.70;99.90;;;;;;5152986;27;20381;-71
2022/04/09 12:55:21;;;;;;;;;;;7.50;99.90;;;;;;5132051;27;19923;-71
2022/04/09 12:57:46;;;;;;;;;;;7.10;99.90;;;;;;5134156;28;19927;-72
2022/04/09 13:00:12;;;;;;;;;;;7.10;99.90;;;;;;5115300;28;19973;-70
2022/04/09 13:02:40;;;;;;;;;;;7.10;99.90;;;;;;5134387;28;20029;-69
2022/04/09 13:05:06;;;;;;;;;;;7.10;99.90;;;;;;5134290;28;20018;-71
2022/04/09 13:07:32;;;;;;;;;;;7.10;99.90;;;;;;5120609;28;20014;-71
2022/04/09 13:09:57;;;;;;;;;;;7.10;99.90;;;;;;5134035;28;19927;-71
2022/04/09 13:12:23;;;;;;;;;;;7.30;99.90;;;;;;5134059;28;19923;-71
2022/04/09 13:14:49;;;;;;;;;;;7.60;99.90;;;;;;5133952;28;19924;-77
2022/04/09 13:17:15;;;;;;;;;;;7.80;99.90;;;;;;5136508;27;19924;-74
2022/04/09 13:19:40;;;;;;;;;;;7.80;99.90;;;;;;5154154;27;19945;-71
2022/04/09 13:22:06;;;;;;;;;;;8.20;99.90;;;;;;5136668;27;20521;-76
2022/04/09 13:24:32;;;;;;;;;;;7.70;99.90;;;;;;5175606;27;19923;-73
2022/04/09 13:26:57;;;;;;;;;;;7.80;99.90;;;;;;5174873;27;19923;-71
2022/04/09 13:29:23;;;;;;;;;;;7.80;99.90;;;;;;5163795;27;20337;-71
2022/04/09 13:31:49;;;;;;;;;;;7.80;99.90;;;;;;5175687;27;19930;-76
2022/04/09 13:34:17;;;;;;;;;;;7.80;99.90;;;;;;5153472;27;19923;-76
2022/04/09 13:36:43;;;;;;;;;;;7.90;99.90;;;;;;5172900;27;20308;-71
2022/04/09 13:39:11;;;;;;;;;;;7.90;99.90;;;;;;5179491;27;19927;-71
2022/04/09 13:41:37;;;;;;;;;;;8.00;99.90;;;;;;5172916;27;20331;-76
2022/04/09 13:44:04;;;;;;;;;;;8.20;99.90;;;;;;5177022;27;20014;-74
2022/04/09 13:46:30;;;;;;;;;;;8.20;99.90;;;;;;5161191;27;19923;-71
2022/04/09 13:48:56;;;;;;;;;;;8.10;99.90;;;;;;5169195;27;19930;-71
2022/04/09 13:51:22;;;;;;;;;;;8.00;99.90;;;;;;5179089;27;19926;-72
2022/04/09 13:53:50;;;;;;;;;;;7.80;99.90;;;;;;5142083;27;19934;-76
2022/04/09 13:56:16;;;;;;;;;;;7.80;99.90;;;;;;5168220;27;19926;-72
2022/04/09 13:58:42;;;;;;;;;;;7.70;99.90;;;;;;5178983;27;19975;-74
2022/04/09 14:01:11;;;;;;;;;;;7.60;99.90;;;;;;5177809;27;20392;-71
2022/04/09 14:03:37;;;;;;;;;;;7.60;99.90;;;;;;5179081;27;19927;-72
2022/04/09 14:06:02;;;;;;;;;;;8.50;99.90;;;;;;5157322;27;19990;-72
2022/04/09 14:08:28;;;;;;;;;;;7.50;99.90;;;;;;5160222;27;20321;-72
2022/04/09 14:10:54;;;;;;;;;;;7.50;99.90;;;;;;5178629;27;20399;-71
2022/04/09 14:13:20;;;;;;;;;;;7.20;99.90;;;;;;5160113;27;19922;-72
2022/04/09 14:16:01;;;;;;;;;;;7.00;99.90;;;;;;5176380;27;19930;-71
2022/04/09 14:18:26;;;;;;;;;;;6.80;99.90;;;;;;5173532;27;19922;-71
2022/04/09 14:20:52;;;;;;;;;;;7.10;99.90;;;;;;5178351;27;19945;-71
2022/04/09 14:23:17;;;;;;;;;;;7.10;99.90;;;;;;5160357;27;19923;-71
2022/04/09 14:25:43;;;;;;;;;;;7.80;99.90;;;;;;5178597;27;20289;-71
2022/04/09 14:28:11;;;;;;;;;;;7.60;99.90;;;;;;5150304;27;19930;-71
2022/04/09 14:30:39;;;;;;;;;;;7.70;99.90;;;;;;5157753;27;20094;-72